James Edwards

Recruteur - Millwall
3 Déc 2028
Dimanche
Processus

Personnalité

Adaptabilité (12) Ambition (17) Controverse (8) Loyauté (4) Pression (12) Professionnalisme (13) Sportivité (9) Tempérament (14)

Profil

Style d'entraînement Démocratique
Diplôme National A
Détermination 6
Gestion des joueurs 9
Motivation 8
Discipline 7
Satisfaction professionnelle
100%
Fatigue
0%
Rôle Recruteur
Salaire 33.2K p/s
Contrat 14.03.2029

Performance

Comportement Bon
Efficacité de l'entraînement
46%
Développement des joueurs
50%
Prévention des blessures
50%
Mise en place tactique
30%

Événements récents

A participé à une réunion de recrutement maintenant
A recommandé une cible de transfert maintenant
A participé à une réunion de recrutement 7j
A recommandé une cible de transfert 7j
A recommandé une cible de transfert 7j
A recommandé une cible de transfert 7j
A recommandé une cible de transfert 14j
A recommandé une cible de transfert 14j

Suivi en cours

133
Joueur Club Statut Capacité Confiance Observé Dernière observation Dernier vote
Mao Hosoya Santos Actif 134 / 135 67% 1 01.01.2028 Approuver
Dion Beljo AJ Auxerre Actif 131 / 132 66% 1 01.01.2028 Approuver
Roberto Fernández Braga Actif 138 / 140 66% 1 01.01.2028 -
Lucas Bergvall Tottenham Actif 142 / 149 40% 5 10.11.2027 -
Colin Guske Orlando City Actif 90 / 106 40% 2 10.11.2027 -
Drew Baiera New York City Actif 98 / 92 40% 2 09.11.2027 -
Snyder Brunell Seattle Sounders Actif 85 / 110 40% 1 09.11.2027 -
Oscar Steinke Brånby Hammarby Actif 107 / 105 40% 1 06.11.2027 -
Onyeuche Ujunwa Ikorodu City Actif 81 / 97 40% 1 06.11.2027 -
Rhys Walters Port Vale Actif 99 / 122 40% 1 05.11.2027 -
Aiden Hezarkhani Real Salt Lake Actif 87 / 100 40% 1 04.11.2027 -
Agustín Obregón River Plate Actif 121 / 119 40% 1 04.11.2027 -
Victor Hernandez Santa Fe Actif 131 / 114 40% 2 03.11.2027 -
Jonny Shore New York City Actif 91 / 106 40% 1 03.11.2027 -
Christos Mouzakitis Hull City Actif 128 / 137 40% 1 03.11.2027 -
Josh Nichols Oldham Athletic Actif 126 / 125 40% 1 01.11.2027 -
Adrian Skogmar Malmo FF Actif 109 / 117 40% 1 01.11.2027 -
Romelle Donovan Brentford Actif 119 / 123 40% 2 05.07.2027 -
Nupe Godstime Bayelsa United Actif 92 / 85 40% 1 05.07.2027 -
Sindre Walle Egeli Udinese Actif 132 / 144 40% 1 21.06.2027 -
Leo Castledine Middlesbrough Actif 126 / 138 40% 1 21.06.2027 -
Charlie Gray Fleetwood Town Actif 86 / 100 40% 2 14.06.2027 -
Sampson Dweh Mallorca Actif 133 / 134 66% 1 01.06.2027 Approuver
Godwin Oham Warri Wolves Actif 90 / 84 40% 2 31.05.2027 -
Jacob Greaves Ipswich Town Actif 145 / 134 40% 3 28.05.2027 -
Aidan Morris Middlesbrough Actif 130 / 137 40% 3 28.05.2027 -
Olaniyi Saheed Kwara United Actif 91 / 92 40% 1 28.05.2027 -
Joel Bagan Cardiff City Actif 116 / 125 40% 1 28.05.2027 -
Lewis Gibson Preston Actif 125 / 132 40% 3 27.05.2027 -
Bosun Lawal Stoke City Actif 131 / 129 40% 3 27.05.2027 -
Lucas Da Cunha Como Actif 138 / 143 40% 2 27.05.2027 -
Issa Yusuf Shooting Stars Actif 95 / 95 40% 1 26.05.2027 -
Adam Randell Bristol City Actif 124 / 134 40% 2 24.05.2027 -
Oliver Arblaster Sheffield United Actif 131 / 131 40% 1 24.05.2027 -
Dennis Cirkin Queens Park Rangers Actif 136 / 134 40% 7 23.05.2027 -
Brooke Norton-Cuffy Hull City Actif 134 / 130 40% 5 23.05.2027 -
Gonçalo Oliveira Benfica Actif 110 / 113 40% 3 22.05.2027 -
Ethan Pye Stockport County Actif 113 / 126 40% 2 22.05.2027 -
Bade Aluko Leicester City Actif 119 / 119 40% 1 22.05.2027 -
Harry Clarke Preston Actif 125 / 132 40% 3 21.05.2027 -
Alfie Gilchrist West Bromwich Albion Actif 133 / 126 40% 3 17.05.2027 -
Josh Acheampong Everton Actif 143 / 136 40% 2 17.05.2027 -
Ronan Kpakio AC Milan Actif 117 / 118 40% 1 17.05.2027 -
Olalekan Adeleke Remo Stars Actif 91 / 85 40% 1 16.05.2027 -
Lucan Louw US Bougouni Actif 80 / 83 40% 1 16.05.2027 -
Kristoffer Lund Birmingham Actif 131 / 121 40% 2 14.05.2027 -
Alex Scott Bournemouth Actif 143 / 146 40% 5 14.05.2027 -
Max Johnston Derby County Actif 123 / 132 40% 5 11.05.2027 -
Juanlu Bournemouth Actif 154 / 152 40% 1 10.05.2027 -
Ronnie Edwards Queens Park Rangers Actif 127 / 124 40% 2 09.05.2027 -
Calvin Bassey Fulham Actif 147 / 151 40% 3 09.05.2027 -
Brian De Keersmaecker Oxford United Actif 124 / 118 40% 2 09.05.2027 -
Luke McNally Bristol City Actif 134 / 131 40% 1 08.05.2027 -
Jack Currie Oxford United Actif 129 / 123 40% 3 06.05.2027 -
Harvey Vale Queens Park Rangers Actif 125 / 116 40% 1 06.05.2027 -
Milan van Ewijk Coventry City Actif 127 / 138 40% 3 03.05.2027 -
Michael Baidoo Plymouth Argyle Actif 124 / 134 40% 6 02.05.2027 -
Alessandro Buongiorno Cagliari Actif 154 / 164 40% 2 01.05.2027 -
Zane Albarus Shrewsbury Town Actif 100 / 96 40% 2 01.05.2027 -
Mitchel Bakker Modena Actif 126 / 119 40% 1 01.05.2027 -
Tommaso Cecotti Carpi Actif 85 / 90 40% 1 01.05.2027 -
Jan Bürger Northampton Town Actif 118 / 113 40% 4 30.04.2027 -
Tiago Freitas Benfica Actif 106 / 118 40% 2 29.04.2027 -
Mpho Khethang FC Diarra Actif 89 / 92 40% 1 29.04.2027 -
Oliver Skipp Leicester City Actif 126 / 140 40% 4 26.04.2027 -
Lewis Bate Stockport County Actif 123 / 120 40% 2 26.04.2027 -
Kamaldeen Atiemo Wa All Stars Actif 92 / 108 40% 2 25.04.2027 -
Bence Dárdai VfL Wolfsburg Actif 138 / 143 40% 1 25.04.2027 -
Ryan Sessegnon Fulham Actif 148 / 146 40% 6 23.04.2027 -
Shea Charles Southampton Actif 130 / 133 40% 1 23.04.2027 -
Xavier Simons Bolton Wanderers Actif 111 / 127 40% 1 21.04.2027 -
Hector Kyprianou Watford Actif 130 / 128 40% 1 21.04.2027 -
Toby Collyer West Bromwich Albion Actif 123 / 128 40% 1 20.04.2027 -
Darlin Yongwa Norwich City Actif 125 / 124 40% 1 20.04.2027 -
Sascha Britschgi AC Milan Actif 122 / 125 40% 1 13.04.2027 -
Welington Southampton Actif 132 / 134 40% 2 12.04.2027 -
Dean Jali Platinum Stars Actif 83 / 103 40% 1 11.04.2027 -
Rivaldo Mkhize Black Aces Actif 69 / 75 40% 1 10.04.2027 -
Miguel Figueiredo Benfica Actif 100 / 115 40% 1 10.04.2027 -
Raoul Bellanova Atalanta Actif 151 / 157 40% 1 07.04.2027 -
Martim Cunha Porto Actif 92 / 115 40% 1 05.04.2027 -
Jacques Ekomié Wrexham Actif 135 / 126 40% 4 03.04.2027 -
Bradley de Jesus Nacional Actif 92 / 95 40% 1 03.04.2027 -
Bernardo Lima Porto Actif 94 / 106 40% 1 03.04.2027 -
Max Bird Birmingham Actif 127 / 125 40% 3 31.03.2027 -
Romano Floriani Mussolini Blackpool Actif 124 / 121 40% 2 31.03.2027 -
Lewis Ferguson Bologna Actif 150 / 143 40% 1 28.03.2027 -
Enrico Delprato Parma Actif 140 / 143 40% 1 26.03.2027 -
Caleb Yirenkyi Coventry City Actif 136 / 130 40% 1 26.03.2027 -
Olivier Leroux Mouscron Actif 101 / 101 40% 1 26.03.2027 -
Kiani Inge Groningen Actif 102 / 112 40% 1 25.03.2027 -
Afriyie Sulemana WAFA Actif 88 / 94 40% 1 24.03.2027 -
Hayden Carter Blackburn Rovers Actif 129 / 128 40% 1 18.03.2027 -
Dani Ángel Sampdoria Actif 90 / 101 40% 1 31.12.2026 -
Finn Azaz Southampton Actif 131 / 129 40% 4 30.12.2026 -
Giacomo Raspadori Atalanta Actif 152 / 149 40% 1 30.12.2026 -
Juan Bezerra Zamalek Actif 128 / 131 40% 1 30.12.2026 -
Léo Leroy Preston Actif 118 / 117 40% 1 28.12.2026 -
Manu Morlanes Mallorca Actif 133 / 139 40% 3 27.12.2026 -
Sorba Thomas Stoke City Actif 130 / 131 40% 1 24.12.2026 -
Talles Magno New York City Actif 139 / 138 40% 1 24.12.2026 -
Jack Rudoni Coventry City Actif 135 / 143 40% 1 20.12.2026 -
Bongani Zungu Ajax Cape Town Actif 139 / 129 40% 1 19.12.2026 -
Florentino Luís Ipswich Town Actif 144 / 149 40% 3 16.12.2026 -
Wilson Isidor Sunderland Actif 132 / 126 40% 2 16.12.2026 -
Scott Twine Bristol City Actif 126 / 132 40% 1 13.12.2026 -
Chemsdine Talbi Sunderland Actif 144 / 141 40% 1 11.12.2026 -
Yannick Bright Inter Miami CF Actif 122 / 133 40% 1 07.12.2026 -
Facundo Mura Inter Miami CF Actif 133 / 122 40% 1 07.12.2026 -
Toti Wolverhampton Actif 137 / 136 40% 1 06.12.2026 -
Habib Diarra Sunderland Actif 138 / 140 40% 1 06.12.2026 -
Jakub Moder Burnley Actif 142 / 133 40% 1 05.12.2026 -
Japhet Sery Larsen Philadelphia Union Actif 138 / 137 40% 2 03.12.2026 -
Bradley Zwane SuperSport United Actif 128 / 105 40% 1 03.12.2026 -
Bénie Traoré New York City Actif 113 / 126 40% 1 03.12.2026 -
Justin Devenny Stoke City Actif 129 / 129 40% 1 03.12.2026 -
Telasco Segovia Inter Miami CF Actif 127 / 131 40% 1 29.11.2026 -
Pedro Porro Tottenham Actif 138 / 140 40% 1 27.11.2026 -
David Ayala Inter Miami CF Actif 113 / 126 40% 1 27.11.2026 -
Cian Ashford Cardiff City Actif 110 / 117 40% 1 25.11.2026 -
Isaiah Jones Luton Town Actif 123 / 126 40% 1 25.11.2026 -
Santiago Rodríguez Columbus Crew Actif 136 / 124 40% 1 24.11.2026 -
Jadon Sancho Manchester United Actif 153 / 143 40% 1 24.11.2026 -
Elias Achouri San Diego Football Club Actif 144 / 121 40% 1 20.11.2026 -
Xavi Simons Tottenham Actif 156 / 166 40% 1 19.11.2026 -
Martín Ojeda Orlando City Actif 147 / 136 40% 1 19.11.2026 -
Tadeo Allende Inter Miami CF Actif 119 / 125 40% 1 17.11.2026 -
Kevin Fulham Actif 141 / 138 40% 1 15.11.2026 -
Ousmane Diomande Nottingham Forest Actif 156 / 161 40% 1 13.11.2026 -
David Da Costa Portland Timbers Actif 136 / 118 40% 1 04.11.2026 -
Gabriel Pirani San Diego Football Club Actif 121 / 142 40% 1 04.11.2026 -
Diego Luna Real Salt Lake Actif 135 / 126 40% 1 04.11.2026 -
Tariq Lamptey Queens Park Rangers Actif 142 / 122 40% 1 02.11.2026 -